createdAt,value
2023-01-25T00:02:00.493Z,26.17
2023-01-25T00:04:27.035Z,24.70
2023-01-25T00:06:53.575Z,22.47
2023-01-25T00:09:20.668Z,24.57
2023-01-25T00:11:47.301Z,22.70
2023-01-25T00:14:14.235Z,24.53
2023-01-25T00:16:41.302Z,23.77
2023-01-25T00:19:08.290Z,25.87
2023-01-25T00:21:35.022Z,24.97
2023-01-25T00:24:01.624Z,25.67
2023-01-25T00:26:32.023Z,26.03
2023-01-25T00:28:58.582Z,26.53
2023-01-25T00:31:34.221Z,26.63
2023-01-25T00:34:07.027Z,25.83
2023-01-25T00:36:34.555Z,27.87
2023-01-25T00:39:01.070Z,24.90
2023-01-25T00:41:27.651Z,25.83
2023-01-25T00:43:54.106Z,25.07
2023-01-25T00:46:20.658Z,26.97
2023-01-25T00:48:47.508Z,25.10
2023-01-25T00:51:14.102Z,26.33
2023-01-25T00:53:40.559Z,25.97
2023-01-25T00:56:07.325Z,27.53
2023-01-25T00:58:34.275Z,26.07
2023-01-25T01:01:00.912Z,25.63
2023-01-25T01:03:27.539Z,26.43
2023-01-25T01:06:05.043Z,26.83
2023-01-25T01:08:33.512Z,25.90
2023-01-25T01:11:03.059Z,26.23
2023-01-25T01:13:29.626Z,24.93
2023-01-25T01:15:57.236Z,25.83
2023-01-25T01:18:23.828Z,26.50
2023-01-25T01:20:53.760Z,24.43
2023-01-25T01:23:21.307Z,26.97
2023-01-25T01:25:47.770Z,25.83
2023-01-25T01:28:14.246Z,26.27
2023-01-25T01:30:40.705Z,24.77
2023-01-25T01:33:07.253Z,24.13
2023-01-25T01:35:33.738Z,25.40
2023-01-25T01:38:00.218Z,24.83
2023-01-25T01:40:26.746Z,25.90
2023-01-25T01:43:03.935Z,25.50
2023-01-25T01:45:48.192Z,27.00
2023-01-25T01:48:20.862Z,27.13
2023-01-25T01:50:50.996Z,28.27
2023-01-25T01:53:17.790Z,26.63
2023-01-25T01:55:44.263Z,28.50
2023-01-25T01:58:11.382Z,32.10
2023-01-25T02:00:40.091Z,26.97
2023-01-25T02:03:08.097Z,29.10
2023-01-25T02:05:44.189Z,28.73
2023-01-25T02:08:14.210Z,30.10
2023-01-25T02:10:44.102Z,29.50
2023-01-25T02:13:10.771Z,29.70
2023-01-25T02:15:39.594Z,31.67
2023-01-25T02:18:06.693Z,29.83
2023-01-25T02:20:37.560Z,29.87
2023-01-25T02:23:10.902Z,30.57
2023-01-25T02:25:37.636Z,28.23
2023-01-25T02:28:08.640Z,29.10
2023-01-25T02:30:35.406Z,28.80
2023-01-25T02:33:03.398Z,29.77
2023-01-25T02:35:39.290Z,30.23
2023-01-25T02:38:08.182Z,31.80
2023-01-25T02:40:39.628Z,30.50
2023-01-25T02:43:07.879Z,30.53
2023-01-25T02:45:34.993Z,30.63
2023-01-25T02:48:01.703Z,32.97
2023-01-25T02:50:30.155Z,31.33
2023-01-25T02:52:56.900Z,34.20
2023-01-25T02:55:23.616Z,34.13
2023-01-25T02:57:52.532Z,32.03
2023-01-25T03:00:20.393Z,29.63
2023-01-25T03:02:47.040Z,26.60
2023-01-25T03:05:16.060Z,26.63
2023-01-25T03:07:44.017Z,28.80
2023-01-25T03:10:10.849Z,28.50
2023-01-25T03:12:39.739Z,28.77
2023-01-25T03:15:07.300Z,29.13
2023-01-25T03:17:38.002Z,27.60
2023-01-25T03:20:06.398Z,27.97
2023-01-25T03:22:33.741Z,29.67
2023-01-25T03:25:01.574Z,31.80
2023-01-25T03:27:29.745Z,30.57
2023-01-25T03:30:12.769Z,31.70
2023-01-25T03:32:41.492Z,30.63
2023-01-25T03:35:15.140Z,30.80
2023-01-25T03:37:42.665Z,33.47
2023-01-25T03:40:13.211Z,31.10
2023-01-25T03:42:44.111Z,30.53
2023-01-25T03:45:14.398Z,33.33
2023-01-25T03:47:42.068Z,34.30
2023-01-25T03:50:10.569Z,36.30
2023-01-25T03:52:43.996Z,31.70
2023-01-25T03:55:11.693Z,33.33
2023-01-25T03:57:44.690Z,32.87
2023-01-25T04:00:12.864Z,33.93
2023-01-25T04:02:46.211Z,35.60
2023-01-25T04:05:16.384Z,33.57
2023-01-25T04:07:44.639Z,34.47
2023-01-25T04:10:13.134Z,38.40
2023-01-25T04:12:45.567Z,37.27
2023-01-25T04:15:13.354Z,39.17
2023-01-25T04:17:40.090Z,38.27
2023-01-25T04:20:19.194Z,34.77
2023-01-25T04:22:46.115Z,35.00
2023-01-25T04:25:14.187Z,36.63
2023-01-25T04:27:51.927Z,35.07
2023-01-25T04:30:18.778Z,39.30
2023-01-25T04:32:46.845Z,41.90
2023-01-25T04:35:32.583Z,43.57
2023-01-25T04:38:00.868Z,37.80
2023-01-25T04:40:34.688Z,38.80
2023-01-25T04:43:01.331Z,41.30
2023-01-25T04:45:29.677Z,40.27
2023-01-25T04:47:58.881Z,38.83
2023-01-25T04:50:26.902Z,42.40
2023-01-25T04:52:56.452Z,40.70
2023-01-25T04:55:23.951Z,41.30
2023-01-25T04:57:53.478Z,42.63
2023-01-25T05:00:20.358Z,42.03
2023-01-25T05:02:48.703Z,38.57
2023-01-25T05:05:15.633Z,38.57
2023-01-25T05:07:46.287Z,39.40
2023-01-25T05:10:13.523Z,40.43
2023-01-25T05:12:54.303Z,40.30
2023-01-25T05:15:20.843Z,39.17
2023-01-25T05:17:48.227Z,40.77
2023-01-25T05:20:15.739Z,40.53
2023-01-25T05:22:43.628Z,38.93
2023-01-25T05:25:31.785Z,39.53
2023-01-25T05:28:00.809Z,41.30
2023-01-25T05:30:56.483Z,40.33
2023-01-25T05:33:27.057Z,41.63
2023-01-25T05:35:54.272Z,40.87
2023-01-25T05:38:21.008Z,43.30
2023-01-25T05:40:48.795Z,37.53
2023-01-25T05:43:15.611Z,38.90
2023-01-25T05:45:42.501Z,40.67
2023-01-25T05:48:12.623Z,39.47
2023-01-25T05:50:39.240Z,44.63
2023-01-25T05:53:10.558Z,43.53
2023-01-25T05:55:38.565Z,43.53
2023-01-25T05:58:09.377Z,44.13
2023-01-25T06:00:39.638Z,43.87
2023-01-25T06:03:07.488Z,44.17
2023-01-25T06:05:37.039Z,44.13
2023-01-25T06:08:06.451Z,45.13
2023-01-25T06:10:44.761Z,38.20
2023-01-25T06:13:12.907Z,40.07
2023-01-25T06:15:39.614Z,40.23
2023-01-25T06:18:31.281Z,41.50
2023-01-25T06:21:16.464Z,41.40
2023-01-25T06:23:45.255Z,43.27
2023-01-25T06:26:14.775Z,36.90
2023-01-25T06:28:41.435Z,39.73
2023-01-25T06:31:13.126Z,39.10
2023-01-25T06:33:40.553Z,39.10
2023-01-25T06:36:10.667Z,38.67
2023-01-25T06:38:38.809Z,40.57
2023-01-25T06:41:11.033Z,39.30
2023-01-25T06:43:39.711Z,38.53
2023-01-25T06:46:13.291Z,38.10
2023-01-25T06:48:41.060Z,37.83
2023-01-25T06:51:09.997Z,39.63
2023-01-25T06:53:39.743Z,35.63
2023-01-25T06:56:11.783Z,36.27
2023-01-25T06:58:39.121Z,39.03
2023-01-25T07:01:07.180Z,38.40
2023-01-25T07:03:35.237Z,39.67
2023-01-25T07:06:04.697Z,37.80
2023-01-25T07:08:32.403Z,41.17
2023-01-25T07:11:04.084Z,42.17
2023-01-25T07:13:31.470Z,42.50
2023-01-25T07:16:02.590Z,46.37
2023-01-25T07:18:32.766Z,45.43
2023-01-25T07:21:03.517Z,41.40
2023-01-25T07:23:32.088Z,41.67
2023-01-25T07:25:58.610Z,41.67
2023-01-25T07:28:25.495Z,42.67
2023-01-25T07:30:51.896Z,44.37
2023-01-25T07:33:18.320Z,40.53
2023-01-25T07:35:44.918Z,44.73
2023-01-25T07:38:13.862Z,41.70
2023-01-25T07:40:41.047Z,44.83
2023-01-25T07:43:07.524Z,48.60
2023-01-25T07:45:36.251Z,43.67
2023-01-25T07:48:09.132Z,47.77
2023-01-25T07:50:35.618Z,45.83
2023-01-25T07:53:02.123Z,45.37
2023-01-25T07:55:28.616Z,40.73
2023-01-25T07:57:55.786Z,46.37
2023-01-25T08:00:24.998Z,45.57
2023-01-25T08:02:52.052Z,51.33
2023-01-25T08:05:19.220Z,46.83
2023-01-25T08:07:46.162Z,43.43
2023-01-25T08:10:13.025Z,52.10
2023-01-25T08:12:39.801Z,51.10
2023-01-25T08:15:08.555Z,47.37
2023-01-25T08:17:35.510Z,47.63
2023-01-25T08:20:02.155Z,49.47
2023-01-25T08:22:28.636Z,48.50
2023-01-25T08:24:55.268Z,49.90
2023-01-25T08:27:22.859Z,50.77
2023-01-25T08:29:50.974Z,48.70
2023-01-25T08:32:17.518Z,47.10
2023-01-25T08:34:44.108Z,49.13
2023-01-25T08:37:10.866Z,48.67
2023-01-25T08:39:37.683Z,50.83
2023-01-25T08:42:04.207Z,53.10
2023-01-25T08:44:30.651Z,46.57
2023-01-25T08:46:57.177Z,49.83
2023-01-25T08:49:27.045Z,49.43
2023-01-25T08:51:53.762Z,48.50
2023-01-25T08:54:20.585Z,48.20
2023-01-25T08:56:47.149Z,52.77
2023-01-25T08:59:14.014Z,49.37
2023-01-25T09:01:40.492Z,47.87
2023-01-25T09:04:07.104Z,49.67
2023-01-25T09:06:33.888Z,49.47
2023-01-25T09:09:00.495Z,50.37
2023-01-25T09:11:27.259Z,54.03
2023-01-25T09:13:53.844Z,48.43
2023-01-25T09:16:28.192Z,53.10
2023-01-25T09:18:55.911Z,50.93
2023-01-25T09:21:22.481Z,56.83
2023-01-25T09:23:51.273Z,50.40
2023-01-25T09:26:24.330Z,53.13
2023-01-25T09:28:51.859Z,50.93
2023-01-25T09:31:22.419Z,54.77
2023-01-25T09:34:18.744Z,53.80
2023-01-25T09:36:45.239Z,46.60
2023-01-25T09:39:14.648Z,48.93
2023-01-25T09:41:41.114Z,49.67
2023-01-25T09:44:27.851Z,56.20
2023-01-25T09:46:56.765Z,54.10
2023-01-25T09:49:32.442Z,53.50
2023-01-25T09:52:08.247Z,54.47
2023-01-25T09:54:46.477Z,53.20
2023-01-25T09:57:17.583Z,50.33
2023-01-25T09:59:45.365Z,53.90
2023-01-25T10:02:30.140Z,47.43
2023-01-25T10:05:00.283Z,50.40
2023-01-25T10:07:59.034Z,46.30
2023-01-25T10:10:37.127Z,51.13
2023-01-25T10:13:03.994Z,53.40
2023-01-25T10:15:33.081Z,51.37
2023-01-25T10:18:13.749Z,52.97
2023-01-25T10:20:43.307Z,48.90
2023-01-25T10:23:18.853Z,54.47
2023-01-25T10:25:45.237Z,53.20
2023-01-25T10:28:17.904Z,48.60
2023-01-25T10:30:47.490Z,46.57
2023-01-25T10:33:15.607Z,53.57
2023-01-25T10:35:46.885Z,51.40
2023-01-25T10:38:33.988Z,51.03
2023-01-25T10:41:15.236Z,54.20
2023-01-25T10:43:41.923Z,52.73
2023-01-25T10:46:19.456Z,51.00
2023-01-25T10:48:46.493Z,50.37
2023-01-25T10:51:28.801Z,51.27
2023-01-25T10:54:03.628Z,51.77
2023-01-25T10:56:30.874Z,49.20
2023-01-25T10:59:16.521Z,50.27
2023-01-25T11:01:43.609Z,51.67
2023-01-25T11:04:29.097Z,49.67
2023-01-25T11:06:55.819Z,48.70
2023-01-25T11:09:22.290Z,48.00
2023-01-25T11:11:56.857Z,49.50
2023-01-25T11:14:24.328Z,53.37
2023-01-25T11:16:50.935Z,48.20
2023-01-25T11:19:37.417Z,44.53
2023-01-25T11:22:08.203Z,53.10
2023-01-25T11:24:35.739Z,49.37
2023-01-25T11:27:12.981Z,48.17
2023-01-25T11:29:39.670Z,48.80
2023-01-25T11:32:15.393Z,46.13
2023-01-25T11:34:41.943Z,49.83
2023-01-25T11:37:28.792Z,47.53
2023-01-25T11:40:17.095Z,47.30
2023-01-25T11:43:00.025Z,45.87
2023-01-25T11:45:29.595Z,46.87
2023-01-25T11:47:56.196Z,46.67
2023-01-25T11:50:53.083Z,50.20
2023-01-25T11:53:38.595Z,52.53
2023-01-25T11:56:15.763Z,45.97
2023-01-25T11:58:52.786Z,46.33
2023-01-25T12:01:25.122Z,49.50
2023-01-25T12:03:51.691Z,48.47
2023-01-25T12:06:32.316Z,49.03
2023-01-25T12:09:06.193Z,45.73
2023-01-25T12:11:41.798Z,44.83
2023-01-25T12:14:26.959Z,50.60
2023-01-25T12:17:02.751Z,50.70
2023-01-25T12:19:35.588Z,46.00
2023-01-25T12:22:06.294Z,47.67
2023-01-25T12:24:56.922Z,47.67
2023-01-25T12:27:41.496Z,47.90
2023-01-25T12:30:14.055Z,42.00
2023-01-25T12:32:50.065Z,45.63
2023-01-25T12:35:25.968Z,45.37
2023-01-25T12:37:54.837Z,47.90
2023-01-25T12:40:25.762Z,44.00
2023-01-25T12:42:54.019Z,47.60
2023-01-25T12:45:28.985Z,45.73
2023-01-25T12:48:01.595Z,47.30
2023-01-25T12:50:34.430Z,47.83
2023-01-25T12:53:10.683Z,45.83
2023-01-25T12:55:37.289Z,47.83
2023-01-25T12:58:03.699Z,45.33
2023-01-25T13:00:49.156Z,45.93
2023-01-25T13:03:34.408Z,47.70
2023-01-25T13:06:28.835Z,49.60
2023-01-25T13:09:05.237Z,48.23
2023-01-25T13:11:38.212Z,50.73
2023-01-25T13:14:27.859Z,51.77
2023-01-25T13:17:11.368Z,47.17
2023-01-25T13:19:45.134Z,50.70
2023-01-25T13:22:18.273Z,49.73
2023-01-25T13:25:03.903Z,51.43
2023-01-25T13:27:49.938Z,53.97
2023-01-25T13:30:23.186Z,49.37
2023-01-25T13:32:49.899Z,49.17
2023-01-25T13:35:31.215Z,56.03
2023-01-25T13:38:02.332Z,54.90
2023-01-25T13:40:37.851Z,58.20
2023-01-25T13:43:27.870Z,58.30
2023-01-25T13:45:55.164Z,60.43
2023-01-25T13:48:23.282Z,57.50
2023-01-25T13:51:03.568Z,55.23
2023-01-25T13:53:33.279Z,56.33
2023-01-25T13:56:02.118Z,58.17
2023-01-25T13:58:31.288Z,59.87
2023-01-25T14:01:11.321Z,62.40
2023-01-25T14:03:48.661Z,57.50
2023-01-25T14:06:21.225Z,52.80
2023-01-25T14:08:49.112Z,53.20
2023-01-25T14:11:22.470Z,54.90
2023-01-25T14:13:58.764Z,56.97
2023-01-25T14:16:29.878Z,65.03
2023-01-25T14:18:58.059Z,63.93
2023-01-25T14:21:24.933Z,62.20
2023-01-25T14:23:55.069Z,57.13
2023-01-25T14:26:23.505Z,61.17
2023-01-25T14:29:02.017Z,59.10
2023-01-25T14:31:37.141Z,57.60
2023-01-25T14:34:05.069Z,61.30
2023-01-25T14:36:34.564Z,57.93
2023-01-25T14:39:04.701Z,59.83
2023-01-25T14:41:48.881Z,63.03
2023-01-25T14:44:26.091Z,63.20
2023-01-25T14:47:15.007Z,66.63
2023-01-25T14:49:41.815Z,59.87
2023-01-25T14:52:11.825Z,62.77
2023-01-25T14:54:57.548Z,63.10
2023-01-25T14:57:37.993Z,62.50
2023-01-25T15:00:09.777Z,59.23
2023-01-25T15:02:47.130Z,63.07
2023-01-25T15:05:15.953Z,62.90
2023-01-25T15:07:52.879Z,63.03
2023-01-25T15:10:19.516Z,62.43
2023-01-25T15:13:26.344Z,58.37
2023-01-25T15:16:00.611Z,61.33
2023-01-25T15:18:59.663Z,64.23
2023-01-25T15:21:33.010Z,57.13
2023-01-25T15:24:04.688Z,59.60
2023-01-25T15:26:32.323Z,59.10
2023-01-25T15:28:59.920Z,57.60
2023-01-25T15:31:27.805Z,58.23
2023-01-25T15:33:55.364Z,62.27
2023-01-25T15:36:22.203Z,59.87
2023-01-25T15:38:48.759Z,52.73
2023-01-25T15:41:15.485Z,58.10
2023-01-25T15:43:41.997Z,58.03
2023-01-25T15:46:14.868Z,57.30
2023-01-25T15:48:42.477Z,56.17
2023-01-25T15:51:09.103Z,50.67
2023-01-25T15:53:35.615Z,55.07
2023-01-25T15:56:03.470Z,59.07
2023-01-25T15:58:33.101Z,55.30
2023-01-25T16:01:00.361Z,60.03
2023-01-25T16:03:27.575Z,56.37
2023-01-25T16:05:57.051Z,58.80
2023-01-25T16:08:23.503Z,52.53
2023-01-25T16:10:50.117Z,52.07
2023-01-25T16:13:16.607Z,59.53
2023-01-25T16:15:45.901Z,59.80
2023-01-25T16:18:13.652Z,53.77
2023-01-25T16:20:40.599Z,60.57
2023-01-25T16:23:08.473Z,55.20
2023-01-25T16:25:35.007Z,59.37
2023-01-25T16:28:01.501Z,60.73
2023-01-25T16:30:31.062Z,55.43
2023-01-25T16:32:57.632Z,53.47
2023-01-25T16:35:24.335Z,51.03
2023-01-25T16:37:50.909Z,51.17
2023-01-25T16:40:25.313Z,54.17
2023-01-25T16:42:52.214Z,53.83
2023-01-25T16:45:19.477Z,53.47
2023-01-25T16:47:47.468Z,50.07
2023-01-25T16:50:18.648Z,50.90
2023-01-25T16:52:45.980Z,53.70
2023-01-25T16:55:13.404Z,49.00
2023-01-25T16:57:40.617Z,54.47
2023-01-25T17:00:10.498Z,57.73
2023-01-25T17:02:40.110Z,59.50
2023-01-25T17:05:08.461Z,57.30
2023-01-25T17:07:35.477Z,53.80
2023-01-25T17:10:03.982Z,57.17
2023-01-25T17:12:30.493Z,53.20
2023-01-25T17:14:59.452Z,57.80
2023-01-25T17:17:27.813Z,53.47
2023-01-25T17:19:54.369Z,55.40
2023-01-25T17:22:20.873Z,52.10
2023-01-25T17:24:47.378Z,53.43
2023-01-25T17:27:15.600Z,54.80
2023-01-25T17:29:42.077Z,59.20
2023-01-25T17:32:09.390Z,52.40
2023-01-25T17:34:35.812Z,56.90
2023-01-25T17:37:02.306Z,57.97
2023-01-25T17:39:28.914Z,54.23
2023-01-25T17:41:55.530Z,54.90
2023-01-25T17:44:23.005Z,50.30
2023-01-25T17:46:49.919Z,52.50
2023-01-25T17:49:17.075Z,51.97
2023-01-25T17:51:46.484Z,42.87
2023-01-25T17:54:13.410Z,41.57
2023-01-25T17:56:40.206Z,45.10
2023-01-25T17:59:08.924Z,37.20
2023-01-25T18:01:35.516Z,40.87
2023-01-25T18:04:02.381Z,46.73
2023-01-25T18:06:30.744Z,46.30
2023-01-25T18:09:00.010Z,43.13
2023-01-25T18:11:27.823Z,43.37
2023-01-25T18:13:55.884Z,37.83
2023-01-25T18:16:23.117Z,39.80
2023-01-25T18:18:50.668Z,37.80
2023-01-25T18:21:22.149Z,37.53
2023-01-25T18:23:48.852Z,39.70
2023-01-25T18:26:19.464Z,41.30
2023-01-25T18:28:46.083Z,38.63
2023-01-25T18:31:12.870Z,39.70
2023-01-25T18:33:39.471Z,40.57
2023-01-25T18:36:06.113Z,36.67
2023-01-25T18:38:35.514Z,35.70
2023-01-25T18:41:02.044Z,40.77
2023-01-25T18:43:28.684Z,44.00
2023-01-25T18:45:55.889Z,44.97
2023-01-25T18:48:30.199Z,50.80
2023-01-25T18:50:59.970Z,49.70
2023-01-25T18:53:27.220Z,50.80
2023-01-25T18:56:04.358Z,55.33
2023-01-25T18:58:32.216Z,51.40
2023-01-25T19:01:03.922Z,54.20
2023-01-25T19:03:30.507Z,55.77
2023-01-25T19:05:57.848Z,56.20
2023-01-25T19:08:25.496Z,59.33
2023-01-25T19:11:12.208Z,63.00
2023-01-25T19:13:39.594Z,62.77
2023-01-25T19:16:06.296Z,60.87
2023-01-25T19:18:34.218Z,65.80
2023-01-25T19:21:00.959Z,64.13
2023-01-25T19:23:32.349Z,64.73
2023-01-25T19:25:58.917Z,60.93
2023-01-25T19:28:25.539Z,60.57
2023-01-25T19:30:52.320Z,60.73
2023-01-25T19:33:18.905Z,59.43
2023-01-25T19:35:45.317Z,68.07
2023-01-25T19:38:11.861Z,63.27
2023-01-25T19:40:38.539Z,62.23
2023-01-25T19:43:05.223Z,65.50
2023-01-25T19:45:31.816Z,65.53
2023-01-25T19:47:58.302Z,66.63
2023-01-25T19:50:24.856Z,58.20
2023-01-25T19:52:51.503Z,59.23
2023-01-25T19:55:17.933Z,57.30
2023-01-25T19:57:46.104Z,56.93
2023-01-25T20:00:12.918Z,55.60
2023-01-25T20:02:39.600Z,54.30
2023-01-25T20:05:06.199Z,53.57
2023-01-25T20:07:33.475Z,51.60
2023-01-25T20:09:59.990Z,54.83
2023-01-25T20:12:26.416Z,45.77
2023-01-25T20:14:53.060Z,49.83
2023-01-25T20:17:19.677Z,50.67
2023-01-25T20:19:47.270Z,48.70
2023-01-25T20:22:13.895Z,52.00
2023-01-25T20:24:40.376Z,53.10
2023-01-25T20:27:07.405Z,57.07
2023-01-25T20:29:33.986Z,59.17
2023-01-25T20:32:01.087Z,63.73
2023-01-25T20:34:27.599Z,56.33
2023-01-25T20:36:54.383Z,57.47
2023-01-25T20:39:21.422Z,52.90
2023-01-25T20:41:48.098Z,48.97
2023-01-25T20:44:15.518Z,50.00
2023-01-25T20:46:42.102Z,51.90
2023-01-25T20:49:09.658Z,55.80
2023-01-25T20:51:36.253Z,56.10
2023-01-25T20:54:03.268Z,52.87
2023-01-25T20:56:31.817Z,54.67
2023-01-25T20:58:58.301Z,51.10
2023-01-25T21:01:28.272Z,54.27
2023-01-25T21:03:56.704Z,57.87
2023-01-25T21:06:27.882Z,57.17
2023-01-25T21:08:54.645Z,53.53
2023-01-25T21:11:23.009Z,55.80
2023-01-25T21:13:49.442Z,49.87
2023-01-25T21:16:21.453Z,50.63
2023-01-25T21:18:49.519Z,54.27
2023-01-25T21:21:17.608Z,54.13
2023-01-25T21:23:45.180Z,56.43
2023-01-25T21:26:15.722Z,53.97
2023-01-25T21:28:42.240Z,52.80
2023-01-25T21:31:09.892Z,48.97
2023-01-25T21:33:37.898Z,54.13
2023-01-25T21:36:08.562Z,51.03
2023-01-25T21:38:35.907Z,54.50
2023-01-25T21:41:03.223Z,54.03
2023-01-25T21:43:29.721Z,61.40
2023-01-25T21:46:18.324Z,55.30
2023-01-25T21:49:03.554Z,60.97
2023-01-25T21:51:36.361Z,56.60
2023-01-25T21:54:03.162Z,57.83
2023-01-25T21:56:29.645Z,59.93
2023-01-25T21:58:56.161Z,57.17
2023-01-25T22:01:23.411Z,65.43
2023-01-25T22:03:50.706Z,65.23
2023-01-25T22:06:17.811Z,62.80
2023-01-25T22:08:44.591Z,68.33
2023-01-25T22:11:11.211Z,70.60
2023-01-25T22:13:38.240Z,63.50
2023-01-25T22:16:05.851Z,67.80
2023-01-25T22:18:35.646Z,69.73
2023-01-25T22:21:03.430Z,63.97
2023-01-25T22:23:30.220Z,64.20
2023-01-25T22:26:09.819Z,62.23
2023-01-25T22:28:47.522Z,71.37
2023-01-25T22:31:14.922Z,68.03
2023-01-25T22:33:41.640Z,72.70
2023-01-25T22:36:08.610Z,69.80
2023-01-25T22:38:35.092Z,67.93
2023-01-25T22:41:08.602Z,66.50
2023-01-25T22:43:35.361Z,64.23
2023-01-25T22:46:02.030Z,60.07
2023-01-25T22:48:28.601Z,65.33
2023-01-25T22:50:59.983Z,74.30
2023-01-25T22:53:26.487Z,75.80
2023-01-25T22:55:58.303Z,78.40
2023-01-25T22:58:24.786Z,84.93
2023-01-25T23:00:51.242Z,81.87
2023-01-25T23:03:17.802Z,84.17
2023-01-25T23:05:44.320Z,81.33
2023-01-25T23:08:10.806Z,90.43
2023-01-25T23:10:37.255Z,90.73
2023-01-25T23:13:03.700Z,88.93
2023-01-25T23:15:30.160Z,86.97
2023-01-25T23:18:15.222Z,82.97
2023-01-25T23:20:41.691Z,80.90
2023-01-25T23:23:08.189Z,85.30
2023-01-25T23:25:34.636Z,86.87
2023-01-25T23:28:01.087Z,86.77
2023-01-25T23:30:27.624Z,86.37
2023-01-25T23:32:54.132Z,84.70
2023-01-25T23:35:20.702Z,83.07
2023-01-25T23:37:47.309Z,87.53
2023-01-25T23:40:14.690Z,85.97
2023-01-25T23:42:41.181Z,88.20
2023-01-25T23:45:08.285Z,89.27
2023-01-25T23:47:34.884Z,80.33
2023-01-25T23:50:01.356Z,86.23
2023-01-25T23:52:28.183Z,80.73
2023-01-25T23:54:54.711Z,76.17
2023-01-25T23:57:21.550Z,81.80
2023-01-25T23:59:48.100Z,95.87
